Time;durP1;ratioP1;P1;durP2;ratioP2;P2;SDS_P1;SDS_P2;PMS_P1;PMS_P2;Temp;Humidity;BMP_temperature;BMP_pressure;BME280_temperature;BME280_humidity;BME280_pressure;Samples;Min_cycle;Max_cycle;Signal;HPM_P1;HPM_P2
2023/10/12 00:02:08;;;;;;;1006.20;519.73;;;13.40;99.90;;;;;;5134044;28;20277;-83
2023/10/12 00:05:00;;;;;;;996.27;517.80;;;13.20;99.90;;;;;;5132921;27;20320;-83
2023/10/12 00:07:37;;;;;;;999.10;518.23;;;13.30;99.90;;;;;;5111973;28;20875;-83
2023/10/12 00:12:46;;;;;;;981.50;434.50;;;13.30;99.90;;;;;;5131894;28;20791;-83
2023/10/12 00:15:29;;;;;;;1005.95;522.28;;;13.50;99.90;;;;;;5133599;28;20358;-83
2023/10/12 00:17:59;;;;;;;993.70;438.67;;;13.50;99.90;;;;;;5133819;28;20047;-82
2023/10/12 00:23:10;;;;;;;991.40;429.47;;;13.30;99.90;;;;;;5132032;28;20649;-83
2023/10/12 00:25:45;;;;;;;977.80;516.10;;;13.30;99.90;;;;;;5133410;27;20297;-83
2023/10/12 00:28:18;;;;;;;996.27;430.50;;;13.30;99.90;;;;;;5115318;28;20353;-82
2023/10/12 00:30:47;;;;;;;1004.43;520.77;;;13.30;99.90;;;;;;5133136;27;20334;-83
2023/10/12 00:33:13;;;;;;;975.13;424.40;;;13.30;99.90;;;;;;5133790;27;20787;-82
2023/10/12 00:35:39;;;;;;;975.00;425.67;;;13.30;99.90;;;;;;5133413;28;20304;-83
2023/10/12 00:38:39;;;;;;;979.83;431.57;;;13.20;99.90;;;;;;5133247;27;20292;-83
2023/10/12 00:41:03;;;;;;;978.07;425.40;;;13.20;99.90;;;;;;5133062;27;20058;-83
2023/10/12 00:43:36;;;;;;;997.47;518.57;;;13.20;99.90;;;;;;5135840;27;20292;-83
2023/10/12 00:46:16;;;;;;;972.67;424.63;;;13.20;99.90;;;;;;5138026;27;20320;-83
2023/10/12 00:48:47;;;;;;;976.30;425.50;;;13.20;99.90;;;;;;5147522;27;20303;-83
2023/10/12 00:55:02;;;;;;;1002.17;521.23;;;13.20;99.90;;;;;;5138367;27;20826;-82
2023/10/12 00:57:28;;;;;;;989.80;519.17;;;13.20;99.90;;;;;;5136891;27;20324;-82
2023/10/12 00:59:54;;;;;;;985.37;515.77;;;13.20;99.90;;;;;;5135822;27;20656;-82
2023/10/12 01:02:29;;;;;;;971.27;429.73;;;13.20;99.90;;;;;;5136669;27;20043;-83
2023/10/12 01:04:54;;;;;;;974.23;428.97;;;13.30;99.90;;;;;;5133489;27;20304;-82
2023/10/12 01:07:25;;;;;;;968.30;422.20;;;13.20;99.90;;;;;;5151156;27;20288;-82
2023/10/12 01:10:02;;;;;;;972.50;508.60;;;13.20;99.90;;;;;;5138923;27;20122;-82
2023/10/12 01:12:31;;;;;;;964.47;420.73;;;13.20;99.90;;;;;;5157404;27;20363;-82
2023/10/12 01:14:57;;;;;;;965.80;421.13;;;13.10;99.90;;;;;;5143059;27;20338;-82
2023/10/12 01:17:29;;;;;;;981.97;515.87;;;13.10;99.90;;;;;;5118028;27;20336;-82
2023/10/12 01:19:55;;;;;;;957.60;422.07;;;13.10;99.90;;;;;;5136528;27;20035;-82
2023/10/12 01:22:27;;;;;;;956.60;422.80;;;13.00;99.90;;;;;;5136732;27;20307;-82
2023/10/12 01:27:21;;;;;;;969.80;511.03;;;13.00;99.90;;;;;;5134778;27;20296;-82
2023/10/12 01:29:53;;;;;;;978.73;517.03;;;13.00;99.90;;;;;;5135342;27;20281;-83
2023/10/12 01:35:26;;;;;;;960.97;421.57;;;12.90;99.90;;;;;;5150390;27;20323;-83
2023/10/12 01:37:55;;;;;;;955.10;417.83;;;13.10;99.90;;;;;;5132236;27;20687;-83
2023/10/12 01:40:24;;;;;;;952.03;505.27;;;12.90;99.90;;;;;;5136045;27;20328;-83
2023/10/12 01:42:50;;;;;;;970.90;516.60;;;12.90;99.90;;;;;;5136301;27;20277;-83
2023/10/12 01:47:54;;;;;;;953.73;426.03;;;12.90;99.90;;;;;;5135893;27;20055;-82
2023/10/12 01:50:20;;;;;;;957.87;509.73;;;12.90;99.90;;;;;;5132147;27;20836;-83
2023/10/12 01:52:47;;;;;;;944.10;501.70;;;12.80;99.90;;;;;;5115344;28;20364;-83
2023/10/12 01:55:29;;;;;;;950.30;508.97;;;12.80;99.90;;;;;;5115343;28;20456;-83
2023/10/12 01:57:56;;;;;;;936.43;503.60;;;12.80;99.90;;;;;;5134472;27;20785;-83
2023/10/12 02:00:31;;;;;;;941.60;504.57;;;12.70;99.90;;;;;;5135916;27;20641;-83
2023/10/12 02:03:12;;;;;;;949.37;424.50;;;13.00;99.90;;;;;;5135981;27;21117;-83
2023/10/12 02:06:14;;;;;;;954.77;507.63;;;12.70;99.90;;;;;;5117116;27;20326;-83
2023/10/12 02:08:39;;;;;;;944.80;420.23;;;12.70;99.90;;;;;;5123120;27;20352;-82
2023/10/12 02:11:26;;;;;;;943.87;507.97;;;12.60;99.90;;;;;;5135578;27;20287;-83
2023/10/12 02:13:54;;;;;;;953.43;511.37;;;12.60;99.90;;;;;;5155028;27;20293;-83
2023/10/12 02:16:25;;;;;;;958.87;511.80;;;12.60;99.90;;;;;;5156294;27;20311;-83
2023/10/12 02:18:55;;;;;;;941.80;425.27;;;12.90;99.90;;;;;;5135835;27;20632;-83
2023/10/12 02:21:22;;;;;;;945.97;508.53;;;12.50;99.90;;;;;;5144427;27;20357;-83
2023/10/12 02:23:57;;;;;;;947.00;506.13;;;12.50;99.90;;;;;;5154784;27;20451;-83
2023/10/12 02:31:46;;;;;;;963.23;511.60;;;12.60;99.90;;;;;;5135119;27;20409;-83
2023/10/12 02:34:17;;;;;;;958.63;510.67;;;12.50;99.90;;;;;;5135179;27;20322;-83
2023/10/12 02:39:28;;;;;;;958.40;421.93;;;12.40;99.90;;;;;;5142331;27;20289;-83
2023/10/12 02:42:11;;;;;;;951.00;418.27;;;12.40;99.90;;;;;;5135208;27;20281;-83
2023/10/12 02:47:21;;;;;;;954.20;507.77;;;12.70;99.90;;;;;;5134813;27;20291;-83
2023/10/12 02:49:47;;;;;;;951.60;423.27;;;12.30;99.90;;;;;;5133225;27;20784;-82
2023/10/12 02:52:15;;;;;;;951.13;421.00;;;12.80;99.90;;;;;;5133459;27;20301;-82
2023/10/12 02:54:51;;;;;;;945.37;504.30;;;12.50;99.90;;;;;;5134674;27;20819;-83
2023/10/12 02:57:24;;;;;;;946.97;417.33;;;12.30;99.90;;;;;;5134501;27;20305;-82
2023/10/12 03:00:15;;;;;;;955.85;510.13;;;12.30;99.90;;;;;;5134038;27;20367;-83
2023/10/12 03:02:44;;;;;;;945.90;415.90;;;12.40;99.90;;;;;;5133425;27;20116;-83
2023/10/12 03:05:10;;;;;;;954.53;508.60;;;12.60;99.90;;;;;;5134686;27;20280;-83
2023/10/12 03:07:38;;;;;;;961.77;511.30;;;12.10;99.90;;;;;;5133587;27;20289;-82
2023/10/12 03:10:07;;;;;;;955.73;422.97;;;12.40;99.90;;;;;;5143627;27;20293;-82
2023/10/12 03:12:42;;;;;;;960.23;423.37;;;12.10;99.90;;;;;;5134307;27;20289;-82
2023/10/12 03:15:14;;;;;;;953.20;419.63;;;12.10;99.90;;;;;;5133270;27;20807;-82
2023/10/12 03:17:54;;;;;;;951.63;417.93;;;12.00;99.90;;;;;;5133571;27;20054;-82
2023/10/12 03:20:22;;;;;;;938.47;410.20;;;12.50;99.90;;;;;;5134092;27;20330;-82
2023/10/12 03:22:52;;;;;;;1212.87;478.33;;;12.00;99.90;;;;;;5133029;27;20407;-82
2023/10/12 03:25:38;;;;;;;1316.97;432.00;;;12.00;99.90;;;;;;5133885;27;20047;-82
2023/10/12 03:28:29;;;;;;;1198.70;525.15;;;12.10;99.90;;;;;;5135426;27;20384;-83
2023/10/12 03:30:53;;;;;;;1082.47;521.20;;;12.00;99.90;;;;;;5131891;27;20122;-83
2023/10/12 03:33:27;;;;;;;945.90;416.67;;;11.90;99.90;;;;;;5132801;27;20392;-82
2023/10/12 03:35:58;;;;;;;950.97;424.17;;;12.20;99.90;;;;;;5132923;27;20300;-83
2023/10/12 03:38:25;;;;;;;949.03;503.37;;;12.40;99.90;;;;;;5132972;27;20285;-82
2023/10/12 03:41:45;;;;;;;958.90;510.00;;;11.80;99.90;;;;;;5133848;27;20276;-83
2023/10/12 03:43:40;;;;;;;;;;;12.30;99.90;;;;;;5128613;27;20289;-83
2023/10/12 03:51:42;;;;;;;935.77;499.93;;;11.80;99.90;;;;;;5071184;28;20397;-83
2023/10/12 03:54:18;;;;;;;957.03;419.03;;;11.90;99.90;;;;;;5073493;28;20297;-83
2023/10/12 03:56:48;;;;;;;946.53;411.42;;;12.00;99.90;;;;;;5073550;28;20324;-83
2023/10/12 03:59:27;;;;;;;956.60;417.23;;;11.70;99.90;;;;;;5072715;28;20046;-83
2023/10/12 04:01:54;;;;;;;927.03;404.67;;;11.70;99.90;;;;;;5053990;28;20302;-83
2023/10/12 04:04:34;;;;;;;922.80;405.63;;;11.70;99.90;;;;;;5075692;28;20298;-83
2023/10/12 04:09:39;;;;;;;941.17;412.00;;;11.70;99.90;;;;;;5053807;28;20298;-83
2023/10/12 04:14:55;;;;;;;944.70;506.70;;;11.60;99.90;;;;;;5073580;28;20306;-82
2023/10/12 04:20:17;;;;;;;959.03;507.03;;;11.60;99.90;;;;;;5070798;28;20071;-82
2023/10/12 04:25:46;;;;;;;944.83;409.13;;;12.20;99.90;;;;;;5073894;28;20667;-83
2023/10/12 04:33:28;;;;;;;951.13;413.80;;;11.60;99.90;;;;;;5136334;27;20301;-82
2023/10/12 04:36:10;;;;;;;954.00;415.57;;;11.50;99.90;;;;;;5135674;27;20303;-82
2023/10/12 04:43:52;;;;;;;934.70;407.48;;;11.50;99.90;;;;;;5143766;27;20345;-82
2023/10/12 04:48:47;;;;;;;949.30;505.27;;;11.40;99.90;;;;;;5137426;27;20138;-82
2023/10/12 04:51:18;;;;;;;940.57;408.10;;;11.40;99.90;;;;;;5137628;27;20848;-82
2023/10/12 04:54:16;;;;;;;948.63;504.37;;;11.40;99.90;;;;;;5135971;27;20051;-82
2023/10/12 04:56:55;;;;;;;936.20;496.60;;;11.40;99.90;;;;;;5135004;27;20320;-82
2023/10/12 04:59:27;;;;;;;946.00;502.43;;;11.40;99.90;;;;;;5137070;27;20273;-83
2023/10/12 05:04:35;;;;;;;941.13;409.20;;;11.60;99.90;;;;;;5135476;27;20800;-82
2023/10/12 05:07:53;;;;;;;934.00;404.40;;;11.20;99.90;;;;;;5136456;27;20142;-82
2023/10/12 05:09:53;;;;;;;942.13;505.80;;;11.50;99.90;;;;;;5132714;27;20300;-82
2023/10/12 05:12:20;;;;;;;942.90;502.90;;;11.20;99.90;;;;;;5135494;27;20672;-82
2023/10/12 05:14:47;;;;;;;939.40;499.93;;;11.20;99.90;;;;;;5118421;27;20305;-82
2023/10/12 05:17:13;;;;;;;939.10;411.17;;;11.70;99.90;;;;;;5136304;27;20311;-83
2023/10/12 05:19:41;;;;;;;940.80;412.60;;;11.10;99.90;;;;;;5135181;27;20324;-83
2023/10/12 05:22:06;;;;;;;944.97;504.13;;;11.20;99.90;;;;;;5131415;27;20304;-82
2023/10/12 05:24:32;;;;;;;939.77;406.57;;;11.80;99.90;;;;;;5115162;28;20286;-82
2023/10/12 05:27:09;;;;;;;953.17;502.87;;;11.10;99.90;;;;;;5114765;28;20066;-82
2023/10/12 05:29:38;;;;;;;949.63;500.10;;;11.20;99.90;;;;;;5135212;27;20118;-82
2023/10/12 05:32:18;;;;;;;954.30;503.20;;;11.00;99.90;;;;;;5136570;27;20292;-82
2023/10/12 05:39:51;;;;;;;956.20;505.67;;;10.90;99.90;;;;;;5135826;27;20289;-82
2023/10/12 05:42:19;;;;;;;946.17;500.77;;;10.90;99.90;;;;;;5155635;27;20798;-82
2023/10/12 05:44:50;;;;;;;955.73;504.83;;;10.80;99.90;;;;;;5157127;27;20276;-83
2023/10/12 05:47:18;;;;;;;949.87;501.07;;;10.80;99.90;;;;;;5155398;27;20292;-82
2023/10/12 05:49:50;;;;;;;949.10;408.80;;;11.30;99.90;;;;;;5144534;27;20292;-82
2023/10/12 05:52:16;;;;;;;958.77;502.37;;;10.90;99.90;;;;;;5135076;27;20349;-82
2023/10/12 05:54:43;;;;;;;953.80;408.90;;;10.70;99.90;;;;;;5136036;27;20285;-82
2023/10/12 05:57:19;;;;;;;962.87;505.97;;;10.90;99.90;;;;;;5134305;27;20310;-82
2023/10/12 05:59:49;;;;;;;959.93;503.87;;;11.00;99.90;;;;;;5135779;27;20320;-82
2023/10/12 06:02:17;;;;;;;959.80;501.77;;;10.60;99.90;;;;;;5134911;27;20362;-83
2023/10/12 06:04:44;;;;;;;951.97;405.60;;;10.60;99.90;;;;;;5135890;27;20289;-82
2023/10/12 06:07:10;;;;;;;958.97;501.23;;;10.50;99.90;;;;;;5134485;27;20301;-82
2023/10/12 06:09:37;;;;;;;961.23;501.57;;;10.50;99.90;;;;;;5152468;27;20314;-82
2023/10/12 06:12:06;;;;;;;948.50;405.87;;;10.50;99.90;;;;;;5135287;27;20653;-83
2023/10/12 06:14:37;;;;;;;953.83;406.93;;;10.50;99.90;;;;;;5135388;27;20285;-82
2023/10/12 06:17:06;;;;;;;957.70;500.83;;;11.00;99.90;;;;;;5144148;27;20720;-81
2023/10/12 06:19:36;;;;;;;954.33;406.00;;;10.50;99.90;;;;;;5135938;27;20280;-81
2023/10/12 06:22:23;;;;;;;962.67;500.13;;;10.50;99.90;;;;;;5135144;27;20287;-83
2023/10/12 06:24:52;;;;;;;969.90;502.47;;;10.50;99.90;;;;;;5135407;27;20414;-83
2023/10/12 06:29:51;;;;;;;959.97;405.27;;;11.00;99.90;;;;;;5134918;27;20780;-82
2023/10/12 06:32:20;;;;;;;961.67;406.63;;;10.50;99.90;;;;;;5135313;27;20632;-82
2023/10/12 06:35:02;;;;;;;970.03;409.30;;;10.90;99.90;;;;;;5155908;27;20283;-82
2023/10/12 06:37:59;;;;;;;966.07;404.73;;;11.10;99.90;;;;;;5155497;27;20827;-82
2023/10/12 06:40:37;;;;;;;982.73;503.53;;;10.40;99.90;;;;;;5140291;27;20696;-82
2023/10/12 06:45:51;;;;;;;958.10;402.25;;;10.70;99.90;;;;;;5134938;27;20295;-83
2023/10/12 06:51:11;;;;;;;956.30;400.47;;;11.30;99.90;;;;;;5133812;27;20285;-82
2023/10/12 06:53:37;;;;;;;960.00;401.97;;;10.50;99.90;;;;;;5136976;27;20293;-82
2023/10/12 07:04:15;;;;;;;955.20;400.90;;;10.50;99.90;;;;;;5091381;28;20436;-84
2023/10/12 07:06:56;;;;;;;953.00;400.60;;;10.50;99.90;;;;;;5074974;28;20372;-83
2023/10/12 07:09:27;;;;;;;960.27;407.47;;;10.70;99.90;;;;;;5091494;28;20759;-82
2023/10/12 07:11:53;;;;;;;955.00;404.53;;;10.60;99.90;;;;;;5089740;28;20791;-82
2023/10/12 07:14:30;;;;;;;968.17;504.83;;;10.80;99.90;;;;;;5071544;28;20377;-84
2023/10/12 07:16:56;;;;;;;950.30;404.17;;;11.20;99.90;;;;;;5083764;28;20580;-82
2023/10/12 07:19:24;;;;;;;949.57;407.10;;;10.80;99.90;;;;;;5091425;28;20663;-82
2023/10/12 07:22:01;;;;;;;951.23;409.17;;;11.50;99.90;;;;;;5087160;28;20297;-82
2023/10/12 07:24:30;;;;;;;952.33;500.50;;;11.20;99.90;;;;;;5070665;28;20295;-83
2023/10/12 07:27:09;;;;;;;939.10;402.47;;;11.10;99.90;;;;;;5071011;28;20293;-82
2023/10/12 07:29:37;;;;;;;934.93;401.50;;;11.10;99.90;;;;;;5071274;28;20825;-82
2023/10/12 07:35:42;;;;;;;936.23;497.77;;;11.30;99.90;;;;;;5016079;28;20313;-82
2023/10/12 07:38:00;;;;;;;930.73;498.50;;;11.50;99.90;;;;;;5082094;28;20298;-82
2023/10/12 07:40:34;;;;;;;925.37;404.77;;;11.60;99.90;;;;;;5074272;28;20316;-82
2023/10/12 07:43:10;;;;;;;926.53;500.00;;;11.70;99.90;;;;;;5090684;28;20298;-82
2023/10/12 07:45:40;;;;;;;926.10;406.87;;;11.70;99.90;;;;;;5090837;28;20305;-82
2023/10/12 07:48:09;;;;;;;921.23;406.23;;;11.80;99.90;;;;;;5090432;28;20324;-82
2023/10/12 07:50:45;;;;;;;916.43;496.77;;;12.20;99.90;;;;;;5090674;28;20340;-83
2023/10/12 07:53:22;;;;;;;894.08;490.30;;;12.10;99.90;;;;;;5090936;28;20349;-82
2023/10/12 07:56:01;;;;;;;914.47;497.00;;;11.90;99.90;;;;;;5072929;28;20138;-82
2023/10/12 07:58:30;;;;;;;918.73;407.53;;;12.00;99.90;;;;;;5074009;28;20286;-82
2023/10/12 08:01:20;;;;;;;928.43;505.90;;;12.30;99.90;;;;;;5073968;28;20789;-82
2023/10/12 08:03:50;;;;;;;923.10;410.47;;;12.00;99.90;;;;;;5074180;28;20774;-83
2023/10/12 08:06:19;;;;;;;917.97;499.77;;;12.30;99.90;;;;;;5090236;28;20446;-82
2023/10/12 08:08:45;;;;;;;925.70;503.97;;;12.10;99.90;;;;;;5110160;27;20280;-82
2023/10/12 08:11:23;;;;;;;929.37;503.63;;;12.40;99.90;;;;;;5154609;27;20764;-82
2023/10/12 08:13:49;;;;;;;913.63;497.30;;;12.40;99.90;;;;;;5154409;27;20283;-82
2023/10/12 08:16:16;;;;;;;915.30;499.33;;;12.40;99.90;;;;;;5153923;27;20307;-82
2023/10/12 08:23:58;;;;;;;915.40;405.00;;;12.60;99.90;;;;;;5154617;27;20284;-83
2023/10/12 08:32:27;;;;;;;915.00;408.23;;;12.90;99.90;;;;;;5090414;28;20321;-83
2023/10/12 08:37:26;;;;;;;911.33;496.90;;;13.10;99.90;;;;;;5089602;28;20302;-82
2023/10/12 08:44:59;;;;;;;930.73;418.23;;;13.60;99.90;;;;;;5090312;28;20282;-83
2023/10/12 08:52:27;;;;;;;913.37;499.87;;;13.40;99.90;;;;;;5090326;28;20291;-82
2023/10/12 08:55:12;;;;;;;916.47;501.00;;;13.60;99.90;;;;;;5090268;28;20336;-82
2023/10/12 08:58:12;;;;;;;921.27;424.33;;;13.50;99.90;;;;;;5089942;28;20302;-83
2023/10/12 09:00:42;;;;;;;929.50;507.67;;;13.50;99.90;;;;;;5093884;28;20361;-82
2023/10/12 09:05:51;;;;;;;956.03;436.47;;;13.70;99.90;;;;;;5129581;27;20845;-82
2023/10/12 09:13:35;;;;;;;926.00;435.43;;;13.80;99.90;;;;;;5157823;27;20288;-83
2023/10/12 09:16:09;;;;;;;916.43;427.20;;;14.00;99.90;;;;;;5139250;27;20308;-83
2023/10/12 09:18:57;;;;;;;918.70;432.10;;;13.90;99.90;;;;;;5158089;27;20287;-83
2023/10/12 09:21:28;;;;;;;919.23;425.80;;;14.60;99.90;;;;;;5157810;27;20284;-83
2023/10/12 09:24:05;;;;;;;899.83;501.40;;;14.10;99.90;;;;;;5157688;27;20276;-83
2023/10/12 09:26:32;;;;;;;899.67;507.30;;;14.10;99.90;;;;;;5121859;27;20295;-83
2023/10/12 09:36:55;;;;;;;911.27;434.77;;;14.30;99.90;;;;;;5138908;27;20406;-83
2023/10/12 09:39:26;;;;;;;907.35;512.42;;;14.30;99.90;;;;;;5157225;27;20283;-82
2023/10/12 09:42:09;;;;;;;906.43;428.87;;;14.20;99.90;;;;;;5157450;27;20045;-83
2023/10/12 09:44:39;;;;;;;903.63;432.33;;;14.40;99.90;;;;;;5138613;27;20304;-83
2023/10/12 09:47:11;;;;;;;883.07;500.73;;;14.50;99.90;;;;;;5139012;27;20306;-83
2023/10/12 09:49:44;;;;;;;920.27;442.70;;;14.50;99.90;;;;;;5138702;27;20796;-83
2023/10/12 09:52:17;;;;;;;908.87;440.37;;;14.70;99.90;;;;;;5157002;27;20280;-83
2023/10/12 09:55:15;;;;;;;902.63;435.03;;;14.60;99.90;;;;;;5157122;27;20303;-83
2023/10/12 09:57:50;;;;;;;910.20;434.40;;;14.60;99.90;;;;;;5156385;27;20652;-83
2023/10/12 10:00:28;;;;;;;881.72;504.95;;;14.80;99.90;;;;;;5157432;27;20284;-83
2023/10/12 10:03:03;;;;;;;889.90;505.90;;;14.70;99.90;;;;;;5157287;27;20590;-83
2023/10/12 10:09:48;;;;;;;903.73;433.87;;;14.70;99.90;;;;;;5157166;27;20673;-83
2023/10/12 10:12:18;;;;;;;901.53;433.03;;;14.70;99.90;;;;;;5139183;27;20287;-83
2023/10/12 10:14:57;;;;;;;901.30;433.63;;;14.60;99.90;;;;;;5157528;27;20280;-83
2023/10/12 10:17:46;;;;;;;903.63;435.63;;;14.70;99.90;;;;;;5138891;27;20768;-83
2023/10/12 10:27:12;;;;;;;890.67;509.87;;;14.90;99.90;;;;;;5149483;27;20287;-83
2023/10/12 10:29:53;;;;;;;901.13;439.83;;;14.90;99.90;;;;;;5128010;27;20726;-81
2023/10/12 10:32:32;;;;;;;881.67;501.13;;;14.90;99.90;;;;;;5159766;27;20669;-85
2023/10/12 10:35:04;;;;;;;898.10;427.33;;;15.00;99.90;;;;;;5164883;27;20288;-88
2023/10/12 10:37:47;;;;;;;900.33;433.57;;;15.00;99.90;;;;;;5168788;27;20401;-82
2023/10/12 10:40:20;;;;;;;895.70;427.50;;;15.20;99.90;;;;;;5162508;27;20367;-84
2023/10/12 10:43:08;;;;;;;881.30;508.77;;;15.30;99.90;;;;;;5146778;27;20296;-84
2023/10/12 10:45:36;;;;;;;898.15;434.00;;;15.40;99.90;;;;;;5160048;27;20287;-84
2023/10/12 10:48:03;;;;;;;909.10;442.60;;;15.60;99.90;;;;;;5171697;27;20042;-84
2023/10/12 10:50:33;;;;;;;881.77;498.97;;;15.60;99.90;;;;;;5194577;27;20303;-84
2023/10/12 10:53:00;;;;;;;886.13;508.87;;;15.70;99.90;;;;;;5198055;27;20270;-85
2023/10/12 10:55:31;;;;;;;885.87;507.63;;;15.90;99.90;;;;;;5179084;27;20280;-84
2023/10/12 10:57:57;;;;;;;888.00;509.30;;;16.00;99.90;;;;;;5183200;27;20349;-85
2023/10/12 11:00:33;;;;;;;906.63;432.20;;;16.10;99.90;;;;;;5176719;27;20276;-83
2023/10/12 11:03:03;;;;;;;880.33;498.50;;;16.20;99.90;;;;;;5158938;27;20299;-85
2023/10/12 11:05:30;;;;;;;901.50;437.37;;;16.30;99.90;;;;;;5158534;27;20427;-83
2023/10/12 11:08:05;;;;;;;875.53;503.40;;;16.40;99.90;;;;;;5171208;27;20271;-84
2023/10/12 11:10:31;;;;;;;919.37;513.93;;;16.40;99.90;;;;;;5139446;27;20288;-85
2023/10/12 11:13:04;;;;;;;920.87;464.93;;;16.40;99.90;;;;;;5153182;27;20293;-84
2023/10/12 11:15:30;;;;;;;917.93;510.87;;;16.40;99.90;;;;;;5157984;27;20359;-84
2023/10/12 11:17:56;;;;;;;923.47;471.27;;;16.50;99.90;;;;;;5160558;27;20292;-83
2023/10/12 11:20:57;;;;;;;897.83;503.93;;;16.40;99.90;;;;;;5176433;27;20279;-85
2023/10/12 11:23:14;;;;;;;893.90;507.07;;;16.50;99.90;;;;;;5170717;27;20283;-85
2023/10/12 11:25:41;;;;;;;904.30;438.97;;;16.40;99.90;;;;;;5157748;27;20295;-84
2023/10/12 11:28:20;;;;;;;903.77;444.10;;;16.50;99.90;;;;;;5157537;27;20315;-87
2023/10/12 11:30:48;;;;;;;899.60;432.30;;;16.50;99.90;;;;;;5172638;27;20379;-84
2023/10/12 11:33:16;;;;;;;884.63;378.73;;;16.50;99.90;;;;;;5154012;27;20847;-83
2023/10/12 11:35:43;;;;;;;887.97;405.90;;;16.60;99.90;;;;;;5154931;27;20284;-83
2023/10/12 11:38:17;;;;;;;865.97;456.47;;;16.50;99.90;;;;;;5136374;27;20291;-84
2023/10/12 11:40:52;;;;;;;862.20;453.33;;;16.50;99.90;;;;;;5136580;27;20643;-83
2023/10/12 11:43:44;;;;;;;866.50;465.13;;;16.60;99.90;;;;;;5136180;27;20386;-84
2023/10/12 11:46:10;;;;;;;869.30;468.93;;;16.60;99.90;;;;;;5134010;27;20049;-83
2023/10/12 11:48:36;;;;;;;872.37;470.83;;;16.50;99.90;;;;;;5134169;27;20324;-83
2023/10/12 11:51:11;;;;;;;874.63;474.97;;;16.60;99.90;;;;;;5140393;27;20126;-83
2023/10/12 11:53:41;;;;;;;894.50;401.97;;;16.60;99.90;;;;;;5155098;27;20035;-83
2023/10/12 11:56:22;;;;;;;867.23;466.83;;;16.60;99.90;;;;;;5154591;27;20303;-83
2023/10/12 11:58:55;;;;;;;873.97;472.67;;;16.60;99.90;;;;;;5154848;27;20291;-83
2023/10/12 12:01:28;;;;;;;864.77;453.90;;;16.70;99.90;;;;;;5154824;27;20632;-83
2023/10/12 12:03:55;;;;;;;872.63;452.07;;;16.60;99.90;;;;;;5154516;27;20284;-83
2023/10/12 12:06:21;;;;;;;866.97;441.93;;;16.60;99.90;;;;;;5135766;27;20776;-83
2023/10/12 12:08:48;;;;;;;870.20;393.50;;;16.70;99.90;;;;;;5154123;27;20840;-84
2023/10/12 12:11:31;;;;;;;866.70;434.80;;;16.80;99.90;;;;;;5118570;27;20380;-84
2023/10/12 12:13:57;;;;;;;885.77;376.50;;;16.70;99.90;;;;;;5154253;27;20768;-85
2023/10/12 12:16:22;;;;;;;886.53;384.03;;;16.60;99.90;;;;;;5154364;27;20311;-83
2023/10/12 12:18:52;;;;;;;880.80;349.57;;;16.60;99.90;;;;;;5135801;27;20272;-83
2023/10/12 12:21:29;;;;;;;882.37;331.73;;;16.60;99.90;;;;;;5154512;27;20126;-83
2023/10/12 12:26:45;;;;;;;874.67;337.63;;;16.50;99.90;;;;;;5148964;27;20350;-82
2023/10/12 12:29:15;;;;;;;887.47;324.20;;;16.50;99.90;;;;;;5126905;27;20284;-84
2023/10/12 12:31:41;;;;;;;890.83;300.43;;;16.60;99.90;;;;;;5135894;27;20371;-83
2023/10/12 12:34:07;;;;;;;882.67;348.43;;;16.60;99.90;;;;;;5156875;27;20314;-84
2023/10/12 12:36:33;;;;;;;877.60;355.60;;;16.60;99.90;;;;;;5139560;27;20042;-83
2023/10/12 12:39:09;;;;;;;910.77;297.30;;;16.70;99.90;;;;;;5139880;27;20039;-84
2023/10/12 12:41:35;;;;;;;927.40;293.17;;;16.60;99.90;;;;;;5138981;27;20827;-82
2023/10/12 12:44:01;;;;;;;903.90;295.20;;;16.70;99.90;;;;;;5158502;27;20268;-83
2023/10/12 12:46:29;;;;;;;913.33;297.80;;;16.70;99.90;;;;;;5157678;27;20651;-83
2023/10/12 12:48:55;;;;;;;867.20;378.50;;;16.70;99.90;;;;;;5157659;27;20328;-83
2023/10/12 12:51:21;;;;;;;916.40;281.87;;;16.80;99.90;;;;;;5158024;27;20369;-83
2023/10/12 12:53:50;;;;;;;897.47;291.33;;;16.80;99.90;;;;;;5139576;27;20047;-84
2023/10/12 12:56:16;;;;;;;921.43;292.83;;;16.80;99.90;;;;;;5156378;27;20303;-82
2023/10/12 12:58:47;;;;;;;921.80;291.60;;;16.70;99.90;;;;;;5158061;27;20298;-83
2023/10/12 13:01:23;;;;;;;921.47;290.37;;;16.70;99.90;;;;;;5158200;27;20628;-84
2023/10/12 13:03:52;;;;;;;920.67;286.40;;;16.80;99.90;;;;;;5139251;27;20280;-83
2023/10/12 13:06:19;;;;;;;921.07;289.83;;;16.80;99.90;;;;;;5157339;27;20280;-83
2023/10/12 13:08:45;;;;;;;929.23;292.80;;;16.80;99.90;;;;;;5157618;27;20300;-84
2023/10/12 13:11:11;;;;;;;927.17;289.40;;;16.80;99.90;;;;;;5157448;27;20335;-85
2023/10/12 13:13:39;;;;;;;909.60;286.50;;;16.80;99.90;;;;;;5122038;27;20050;-82
2023/10/12 13:16:05;;;;;;;917.33;286.93;;;16.80;99.90;;;;;;5138809;27;20307;-83
2023/10/12 13:18:32;;;;;;;921.97;285.63;;;16.80;99.90;;;;;;5157424;27;20407;-83
2023/10/12 13:20:59;;;;;;;919.63;283.83;;;16.80;99.90;;;;;;5139146;27;20364;-84
2023/10/12 13:23:25;;;;;;;921.37;283.57;;;16.80;99.90;;;;;;5139354;27;20787;-84
2023/10/12 13:25:51;;;;;;;918.27;283.33;;;16.80;99.90;;;;;;5156826;27;20313;-84
2023/10/12 13:28:17;;;;;;;917.40;281.20;;;16.60;99.90;;;;;;5156461;27;20300;-84
2023/10/12 13:30:44;;;;;;;921.83;287.80;;;16.60;99.90;;;;;;5157399;27;20479;-84
2023/10/12 13:33:13;;;;;;;921.53;285.90;;;16.60;99.90;;;;;;5157023;27;20043;-84
2023/10/12 13:35:42;;;;;;;922.73;287.03;;;16.50;99.90;;;;;;5157127;27;20280;-83
2023/10/12 13:38:12;;;;;;;919.63;284.93;;;16.50;99.90;;;;;;5156388;27;20296;-84
2023/10/12 13:40:48;;;;;;;922.57;286.30;;;16.50;99.90;;;;;;5157173;27;20280;-83
2023/10/12 13:43:14;;;;;;;927.10;292.73;;;16.50;99.90;;;;;;5157269;27;20280;-83
2023/10/12 13:45:48;;;;;;;927.60;294.03;;;16.50;99.90;;;;;;5137885;27;20285;-83
2023/10/12 13:48:22;;;;;;;927.33;292.67;;;16.50;99.90;;;;;;5134857;27;20292;-83
2023/10/12 13:53:49;;;;;;;923.27;290.20;;;16.40;99.90;;;;;;5056279;28;20310;-81
2023/10/12 13:56:15;;;;;;;924.20;291.03;;;16.40;99.90;;;;;;5076135;28;20302;-82
2023/10/12 13:58:44;;;;;;;920.47;285.63;;;16.40;99.90;;;;;;5075436;28;20305;-82
2023/10/12 14:01:18;;;;;;;925.43;293.13;;;16.40;99.90;;;;;;5071635;28;20571;-85
2023/10/12 14:03:57;;;;;;;925.07;291.00;;;16.20;99.90;;;;;;5072757;28;20330;-82
2023/10/12 14:06:23;;;;;;;928.73;296.30;;;16.30;99.90;;;;;;5072561;28;20326;-82
2023/10/12 14:08:50;;;;;;;920.47;288.63;;;16.30;99.90;;;;;;5072491;28;20294;-82
2023/10/12 14:11:17;;;;;;;920.73;287.97;;;16.10;99.90;;;;;;5072275;28;20283;-82
2023/10/12 14:13:44;;;;;;;921.50;292.20;;;16.10;99.90;;;;;;5072469;28;20378;-83
2023/10/12 14:16:11;;;;;;;921.63;290.47;;;16.10;99.90;;;;;;5073885;28;20322;-82
2023/10/12 14:18:40;;;;;;;920.37;287.50;;;16.10;99.90;;;;;;5072346;28;20291;-82
2023/10/12 14:21:15;;;;;;;924.83;296.37;;;16.10;99.90;;;;;;5072263;28;20333;-84
2023/10/12 14:23:50;;;;;;;921.10;291.00;;;16.10;99.90;;;;;;5055888;28;20787;-84
2023/10/12 14:26:18;;;;;;;925.47;295.15;;;16.10;99.90;;;;;;5072027;28;20404;-83
2023/10/12 14:28:47;;;;;;;924.63;295.37;;;16.00;99.90;;;;;;5056850;28;20047;-83
2023/10/12 14:31:13;;;;;;;927.77;301.83;;;16.00;99.90;;;;;;5118165;27;20641;-86
2023/10/12 14:33:40;;;;;;;926.60;299.77;;;16.00;99.90;;;;;;5156162;27;20287;-84
2023/10/12 14:36:05;;;;;;;907.30;298.77;;;16.00;99.90;;;;;;5120445;27;20692;-84
2023/10/12 14:38:33;;;;;;;899.03;288.27;;;16.00;99.90;;;;;;5137367;27;20292;-83
2023/10/12 14:40:59;;;;;;;873.10;292.93;;;15.90;99.90;;;;;;5166910;27;20481;-83
2023/10/12 14:43:29;;;;;;;904.83;282.73;;;15.90;99.90;;;;;;5126476;27;20326;-82
2023/10/12 14:45:55;;;;;;;902.80;293.23;;;15.90;99.90;;;;;;5141241;27;20483;-85
2023/10/12 14:48:26;;;;;;;882.00;286.53;;;15.80;99.90;;;;;;5150159;27;20364;-85
2023/10/12 14:51:09;;;;;;;887.10;296.43;;;15.90;99.90;;;;;;5148179;27;20050;-85
2023/10/12 14:53:35;;;;;;;905.93;284.33;;;15.80;99.90;;;;;;5137009;27;20292;-82